Lakeville, Massachusetts
Current Conditions -  °F | °C
As of 3:52 PM on Friday 24 Oct 2014 (Local Time) from KTAN Reporting Station
Overcast Overcast  
Wind Chill: 55°   Ceiling: 2300
Heat Index: 55°   Visibility: 10mi
Dew Point: 46°   Wind: 7mph
Humidity: 72%   Direction: 310°NW
Pressure: 29.69"   Gusts: NA
Location:  41.85°N, 70.95°W
Report Text: KTAN 241952Z AUTO 31006KT 10SM OVC023 13/08 A2969 RMK AO2 SLP053 T01280078
Loading
Personal Weather Stations






























Interactive Weather Map
Tropical Storm Tracking
New forecast layout! Learn more

10-Day Weather Forecast

Advertisements
Track Severe Weather on mobile